SAS916 KJFK-EKCH
Flight info
| Callsign | SAS916 |
|---|---|
| Flight time | 4h 53m |
| Altitude | 35000 |
| Route | BETTE DCT ACK DCT TUSKY Q475 SCOTS DCT FORTE DCT NICSO/M082F360 DCT 48N050W 50N040W 52N030W 54N020W DCT DOGAL DCT BEXET/N0467F370 DCT NIBOG DCT MAC DCT SURAT DCT PETIL DCT TESPI |
| Aircraft | A339/H-SADE1E2E3GHIJ3J5M1P2RWXY/LB2D1 |
Departure
| Time | 2026-05-04 14:23 |
|---|---|
| Airport | John F. Kennedy International Airport (KJFK) |
Arrival
| Time | 2026-05-04 19:17 |
|---|---|
| Airport | Copenhagen Kastrup Airport (EKCH) |
| Time | Latitude | Longitude | Altitude | Speed | Heading |
|---|---|---|---|---|---|
| 2026-05-04 13:31 | 40.64362 | -73.79197 | 22 ft | 0 kts | 57° |
| 2026-05-04 13:49 | 40.64354 | -73.79211 | 24 ft | 2 kts | 114° |
| 2026-05-04 13:50 | 40.64357 | -73.79231 | 27 ft | 2 kts | 86° |
| 2026-05-04 13:50 | 40.64356 | -73.79250 | 26 ft | 2 kts | 91° |
| 2026-05-04 13:50 | 40.64356 | -73.79269 | 27 ft | 2 kts | 92° |
| 2026-05-04 13:50 | 40.64357 | -73.79289 | 27 ft | 2 kts | 92° |
| 2026-05-04 13:51 | 40.64357 | -73.79308 | 27 ft | 2 kts | 108° |
| 2026-05-04 13:51 | 40.64355 | -73.79306 | 27 ft | 2 kts | 115° |
| 2026-05-04 13:51 | 40.64345 | -73.79295 | 27 ft | 2 kts | 142° |
| 2026-05-04 13:51 | 40.64330 | -73.79298 | 23 ft | 2 kts | 187° |
| 2026-05-04 13:52 | 40.64307 | -73.79315 | 22 ft | 2 kts | 204° |
| 2026-05-04 13:52 | 40.64296 | -73.79326 | 23 ft | 2 kts | 219° |
| 2026-05-04 13:52 | 40.64288 | -73.79337 | 23 ft | 0 kts | 224° |
| 2026-05-04 13:56 | 40.64272 | -73.79357 | 23 ft | 4 kts | 224° |
| 2026-05-04 13:57 | 40.64260 | -73.79372 | 23 ft | 3 kts | 224° |
| 2026-05-04 13:57 | 40.64243 | -73.79393 | 22 ft | 3 kts | 223° |
| 2026-05-04 13:58 | 40.64236 | -73.79404 | 24 ft | 0 kts | 227° |
| 2026-05-04 14:11 | 40.64218 | -73.79434 | 22 ft | 6 kts | 238° |
| 2026-05-04 14:11 | 40.64190 | -73.79516 | 22 ft | 13 kts | 249° |
| 2026-05-04 14:12 | 40.64178 | -73.79609 | 22 ft | 0 kts | 258° |
| 2026-05-04 14:12 | 40.64180 | -73.79616 | 22 ft | 1 kts | 271° |
| 2026-05-04 14:12 | 40.64211 | -73.79614 | 26 ft | 5 kts | 17° |
| 2026-05-04 14:13 | 40.64282 | -73.79599 | 22 ft | 16 kts | 5° |
| 2026-05-04 14:13 | 40.64415 | -73.79593 | 22 ft | 21 kts | 358° |
| 2026-05-04 14:13 | 40.64555 | -73.79615 | 22 ft | 19 kts | 341° |
| 2026-05-04 14:13 | 40.64664 | -73.79711 | 21 ft | 18 kts | 325° |
| 2026-05-04 14:14 | 40.64770 | -73.79796 | 24 ft | 18 kts | 339° |
| 2026-05-04 14:14 | 40.65022 | -73.79797 | 22 ft | 18 kts | 11° |
| 2026-05-04 14:14 | 40.65124 | -73.79707 | 24 ft | 19 kts | 49° |
| 2026-05-04 14:15 | 40.65264 | -73.79389 | 21 ft | 20 kts | 62° |
| 2026-05-04 14:15 | 40.65249 | -73.79045 | 25 ft | 19 kts | 108° |
| 2026-05-04 14:16 | 40.65250 | -73.78728 | 21 ft | 6 kts | 62° |
| 2026-05-04 14:16 | 40.65271 | -73.78679 | 29 ft | 3 kts | 61° |
| 2026-05-04 14:17 | 40.65305 | -73.78598 | 22 ft | 17 kts | 61° |
| 2026-05-04 14:17 | 40.65363 | -73.78446 | 22 ft | 19 kts | 64° |
| 2026-05-04 14:17 | 40.65484 | -73.78164 | 26 ft | 18 kts | 66° |
| 2026-05-04 14:18 | 40.65449 | -73.78017 | 24 ft | 17 kts | 121° |
| 2026-05-04 14:18 | 40.65315 | -73.77723 | 24 ft | 21 kts | 121° |
| 2026-05-04 14:19 | 40.65162 | -73.77385 | 24 ft | 21 kts | 120° |
| 2026-05-04 14:19 | 40.65088 | -73.77222 | 25 ft | 20 kts | 121° |
| 2026-05-04 14:19 | 40.65017 | -73.77066 | 26 ft | 20 kts | 120° |
| 2026-05-04 14:19 | 40.64946 | -73.76910 | 24 ft | 20 kts | 121° |
| 2026-05-04 14:20 | 40.64887 | -73.76780 | 25 ft | 13 kts | 121° |
| 2026-05-04 14:20 | 40.64884 | -73.76699 | 24 ft | 8 kts | 53° |
| 2026-05-04 14:20 | 40.64943 | -73.76647 | 21 ft | 12 kts | 31° |
| 2026-05-04 14:21 | 40.65104 | -73.76498 | 23 ft | 13 kts | 72° |
| 2026-05-04 14:21 | 40.65075 | -73.76421 | 22 ft | 9 kts | 118° |
| 2026-05-04 14:21 | 40.65037 | -73.76357 | 24 ft | 8 kts | 150° |
| 2026-05-04 14:21 | 40.64996 | -73.76375 | 23 ft | 5 kts | 213° |
| 2026-05-04 14:22 | 40.64975 | -73.76392 | 21 ft | 0 kts | 211° |
| 2026-05-04 14:22 | 40.64957 | -73.76406 | 22 ft | 20 kts | 211° |
| 2026-05-04 14:22 | 40.64614 | -73.76675 | 24 ft | 94 kts | 211° |
| 2026-05-04 14:23 | 40.62863 | -73.78042 | 368 ft | 172 kts | 212° |
| 2026-05-04 14:23 | 40.61811 | -73.78835 | 1128 ft | 172 kts | 210° |
| 2026-05-04 14:23 | 40.60770 | -73.79559 | 1924 ft | 174 kts | 211° |
| 2026-05-04 14:24 | 40.59646 | -73.80348 | 2245 ft | 194 kts | 211° |
| 2026-05-04 14:24 | 40.58402 | -73.81247 | 2584 ft | 214 kts | 211° |
| 2026-05-04 14:24 | 40.57050 | -73.82219 | 2908 ft | 230 kts | 211° |
| 2026-05-04 14:24 | 40.55623 | -73.83248 | 3326 ft | 237 kts | 211° |
| 2026-05-04 14:25 | 40.54173 | -73.84287 | 3916 ft | 238 kts | 212° |
| 2026-05-04 14:25 | 40.51201 | -73.86348 | 4997 ft | 246 kts | 206° |
| 2026-05-04 14:25 | 40.49483 | -73.86702 | 5533 ft | 258 kts | 180° |
| 2026-05-04 14:26 | 40.47733 | -73.85977 | 6073 ft | 273 kts | 155° |
| 2026-05-04 14:26 | 40.46306 | -73.84248 | 6583 ft | 289 kts | 129° |
| 2026-05-04 14:26 | 40.45512 | -73.81791 | 7118 ft | 299 kts | 103° |
| 2026-05-04 14:26 | 40.45536 | -73.79054 | 7661 ft | 304 kts | 77° |
| 2026-05-04 14:27 | 40.46026 | -73.76343 | 8197 ft | 306 kts | 77° |
| 2026-05-04 14:27 | 40.46487 | -73.73603 | 8735 ft | 309 kts | 78° |
| 2026-05-04 14:27 | 40.46834 | -73.70815 | 9330 ft | 310 kts | 82° |
| 2026-05-04 14:27 | 40.47129 | -73.67998 | 9886 ft | 313 kts | 82° |
| 2026-05-04 14:28 | 40.47446 | -73.65150 | 10293 ft | 320 kts | 81° |
| 2026-05-04 14:28 | 40.47809 | -73.62186 | 10454 ft | 336 kts | 80° |
| 2026-05-04 14:28 | 40.48215 | -73.59092 | 10614 ft | 352 kts | 80° |
| 2026-05-04 14:28 | 40.48651 | -73.55868 | 10867 ft | 362 kts | 79° |
| 2026-05-04 14:29 | 40.49543 | -73.49304 | 11866 ft | 367 kts | 79° |
| 2026-05-04 14:29 | 40.50439 | -73.42650 | 12873 ft | 372 kts | 79° |
| 2026-05-04 14:30 | 40.50890 | -73.39284 | 13376 ft | 375 kts | 79° |
| 2026-05-04 14:30 | 40.51343 | -73.35897 | 13873 ft | 377 kts | 79° |
| 2026-05-04 14:30 | 40.52250 | -73.29091 | 14702 ft | 384 kts | 79° |
| 2026-05-04 14:31 | 40.52711 | -73.25624 | 15124 ft | 386 kts | 79° |
| 2026-05-04 14:31 | 40.53642 | -73.18600 | 15960 ft | 393 kts | 79° |
| 2026-05-04 14:32 | 40.54584 | -73.11468 | 16781 ft | 399 kts | 79° |
| 2026-05-04 14:32 | 40.55058 | -73.07864 | 17204 ft | 401 kts | 79° |
| 2026-05-04 14:32 | 40.55534 | -73.04234 | 17609 ft | 404 kts | 79° |
| 2026-05-04 14:32 | 40.56082 | -73.00598 | 18000 ft | 406 kts | 73° |
| 2026-05-04 14:33 | 40.56963 | -72.97062 | 18410 ft | 408 kts | 68° |
| 2026-05-04 14:33 | 40.57891 | -72.93517 | 18801 ft | 410 kts | 69° |
| 2026-05-04 14:33 | 40.59874 | -72.85840 | 19665 ft | 414 kts | 69° |
| 2026-05-04 14:33 | 40.63579 | -72.71339 | 21270 ft | 422 kts | 69° |
| 2026-05-04 14:34 | 40.67335 | -72.56532 | 22868 ft | 431 kts | 69° |
| 2026-05-04 14:34 | 40.71152 | -72.41375 | 24300 ft | 440 kts | 70° |
| 2026-05-04 14:34 | 40.75054 | -72.25808 | 25564 ft | 451 kts | 70° |
| 2026-05-04 14:34 | 40.76326 | -72.20707 | 25954 ft | 454 kts | 70° |
| 2026-05-04 14:35 | 40.80951 | -72.02078 | 27375 ft | 466 kts | 70° |
| 2026-05-04 14:35 | 40.85005 | -71.85625 | 28529 ft | 476 kts | 70° |
| 2026-05-04 14:35 | 40.89115 | -71.68829 | 29604 ft | 486 kts | 71° |
| 2026-05-04 14:35 | 40.93286 | -71.51658 | 30557 ft | 495 kts | 71° |
| 2026-05-04 14:36 | 40.97511 | -71.34136 | 31451 ft | 505 kts | 71° |
| 2026-05-04 14:36 | 41.01801 | -71.16205 | 32291 ft | 515 kts | 71° |
| 2026-05-04 14:36 | 41.06139 | -70.97932 | 32944 ft | 523 kts | 72° |
| 2026-05-04 14:36 | 41.10448 | -70.79633 | 33408 ft | 530 kts | 72° |
| 2026-05-04 14:37 | 41.14825 | -70.60918 | 33950 ft | 532 kts | 72° |
| 2026-05-04 14:37 | 41.19177 | -70.42137 | 34433 ft | 532 kts | 73° |
| 2026-05-04 14:37 | 41.23501 | -70.23311 | 34903 ft | 533 kts | 73° |
| 2026-05-04 14:37 | 41.28160 | -70.04646 | 35022 ft | 531 kts | 60° |
| 2026-05-04 14:38 | 41.38012 | -69.90365 | 35016 ft | 524 kts | 39° |
| 2026-05-04 14:38 | 41.59071 | -69.63623 | 34956 ft | 522 kts | 40° |
| 2026-05-04 14:39 | 41.80062 | -69.36722 | 34991 ft | 522 kts | 40° |
| 2026-05-04 14:39 | 42.01022 | -69.09621 | 34916 ft | 524 kts | 40° |
| 2026-05-04 14:40 | 42.32436 | -68.68516 | 34937 ft | 525 kts | 40° |
| 2026-05-04 14:40 | 42.53313 | -68.40861 | 34870 ft | 525 kts | 41° |
| 2026-05-04 14:41 | 42.73946 | -68.13259 | 34933 ft | 523 kts | 41° |
| 2026-05-04 14:42 | 43.15214 | -67.57224 | 34873 ft | 524 kts | 41° |
| 2026-05-04 14:42 | 43.35733 | -67.28938 | 34909 ft | 522 kts | 41° |
| 2026-05-04 14:43 | 43.55849 | -67.00079 | 34902 ft | 526 kts | 52° |
| 2026-05-04 14:43 | 43.60352 | -66.88193 | 34839 ft | 531 kts | 65° |
| 2026-05-04 14:43 | 43.66435 | -66.69674 | 34879 ft | 530 kts | 64° |
| 2026-05-04 14:44 | 43.80464 | -66.26347 | 34832 ft | 531 kts | 65° |
| 2026-05-04 14:44 | 43.92365 | -65.88987 | 34906 ft | 529 kts | 65° |
| 2026-05-04 14:45 | 44.02250 | -65.57563 | 34820 ft | 530 kts | 65° |
| 2026-05-04 14:45 | 44.08512 | -65.37449 | 34832 ft | 530 kts | 65° |
| 2026-05-04 14:46 | 44.11405 | -65.28101 | 34821 ft | 530 kts | 65° |
| 2026-05-04 14:46 | 44.14310 | -65.18681 | 34818 ft | 530 kts | 65° |
| 2026-05-04 14:47 | 44.17208 | -65.09251 | 34824 ft | 529 kts | 65° |
| 2026-05-04 14:47 | 44.20101 | -64.99800 | 34829 ft | 529 kts | 65° |
| 2026-05-04 14:48 | 44.22984 | -64.90348 | 34823 ft | 530 kts | 66° |
| 2026-05-04 14:48 | 44.25860 | -64.80884 | 34821 ft | 530 kts | 66° |
| 2026-05-04 14:49 | 44.28732 | -64.71399 | 34814 ft | 530 kts | 66° |
| 2026-05-04 14:49 | 44.31596 | -64.61909 | 34806 ft | 530 kts | 66° |
| 2026-05-04 14:50 | 44.34431 | -64.52472 | 34808 ft | 530 kts | 66° |
| 2026-05-04 14:50 | 44.37279 | -64.42963 | 34811 ft | 530 kts | 66° |
| 2026-05-04 14:51 | 44.40116 | -64.33450 | 34806 ft | 530 kts | 66° |
| 2026-05-04 14:51 | 44.42948 | -64.23922 | 34797 ft | 530 kts | 66° |
| 2026-05-04 14:52 | 44.45772 | -64.14385 | 34786 ft | 530 kts | 66° |
| 2026-05-04 14:52 | 44.48588 | -64.04843 | 34773 ft | 530 kts | 66° |
| 2026-05-04 14:53 | 44.51427 | -63.95327 | 34763 ft | 529 kts | 65° |
| 2026-05-04 14:53 | 44.54425 | -63.85911 | 34755 ft | 528 kts | 64° |
| 2026-05-04 14:54 | 44.57426 | -63.76508 | 34742 ft | 527 kts | 65° |
| 2026-05-04 14:54 | 44.60263 | -63.67532 | 34720 ft | 527 kts | 65° |
| 2026-05-04 14:55 | 44.63217 | -63.58128 | 34712 ft | 526 kts | 65° |
| 2026-05-04 14:55 | 44.66156 | -63.48723 | 34705 ft | 525 kts | 65° |
| 2026-05-04 14:56 | 44.69084 | -63.39312 | 34695 ft | 525 kts | 65° |
| 2026-05-04 14:56 | 44.72001 | -63.29902 | 34694 ft | 525 kts | 65° |
| 2026-05-04 14:57 | 44.74912 | -63.20479 | 34691 ft | 525 kts | 65° |
| 2026-05-04 14:57 | 44.77793 | -63.11120 | 34688 ft | 525 kts | 66° |
| 2026-05-04 14:58 | 44.80688 | -63.01679 | 34691 ft | 525 kts | 66° |
| 2026-05-04 14:58 | 44.83573 | -62.92236 | 34686 ft | 525 kts | 66° |
| 2026-05-04 14:59 | 44.86454 | -62.82773 | 34679 ft | 525 kts | 66° |
| 2026-05-04 15:00 | 44.90759 | -62.68566 | 34675 ft | 525 kts | 66° |
| 2026-05-04 15:00 | 44.93619 | -62.59082 | 34674 ft | 525 kts | 66° |
| 2026-05-04 15:01 | 44.97879 | -62.44887 | 34660 ft | 525 kts | 66° |
| 2026-05-04 15:01 | 45.00720 | -62.35379 | 34658 ft | 525 kts | 66° |
| 2026-05-04 15:02 | 45.03559 | -62.25840 | 34661 ft | 526 kts | 66° |
| 2026-05-04 15:02 | 45.06388 | -62.16298 | 34652 ft | 526 kts | 66° |
| 2026-05-04 15:03 | 45.09213 | -62.06735 | 34655 ft | 526 kts | 66° |
| 2026-05-04 15:03 | 45.12010 | -61.97227 | 34644 ft | 526 kts | 66° |
| 2026-05-04 15:04 | 45.14817 | -61.87654 | 34641 ft | 526 kts | 67° |
| 2026-05-04 15:04 | 45.17623 | -61.78047 | 34633 ft | 527 kts | 67° |
| 2026-05-04 15:05 | 45.20421 | -61.68427 | 34627 ft | 527 kts | 67° |
| 2026-05-04 15:05 | 45.23206 | -61.58816 | 34621 ft | 527 kts | 67° |
| 2026-05-04 15:06 | 45.25986 | -61.49183 | 34619 ft | 527 kts | 67° |
| 2026-05-04 15:07 | 45.30138 | -61.34730 | 34607 ft | 527 kts | 67° |
| 2026-05-04 15:07 | 45.32878 | -61.25145 | 34594 ft | 527 kts | 67° |
| 2026-05-04 15:08 | 45.35629 | -61.15484 | 34573 ft | 527 kts | 68° |
| 2026-05-04 15:08 | 45.38374 | -61.05802 | 34561 ft | 527 kts | 68° |
| 2026-05-04 15:09 | 45.41108 | -60.96124 | 34556 ft | 527 kts | 68° |
| 2026-05-04 15:09 | 45.43835 | -60.86433 | 34547 ft | 527 kts | 68° |
| 2026-05-04 15:10 | 45.47911 | -60.71873 | 34537 ft | 527 kts | 68° |
| 2026-05-04 15:11 | 45.51953 | -60.57347 | 34531 ft | 528 kts | 68° |
| 2026-05-04 15:11 | 45.54559 | -60.47936 | 34522 ft | 528 kts | 68° |
| 2026-05-04 15:12 | 45.57255 | -60.38164 | 34514 ft | 529 kts | 68° |
| 2026-05-04 15:12 | 45.63255 | -60.16269 | 34495 ft | 530 kts | 69° |
| 2026-05-04 15:13 | 45.73842 | -59.77142 | 34515 ft | 530 kts | 69° |
| 2026-05-04 15:13 | 45.84431 | -59.37349 | 34500 ft | 529 kts | 69° |
| 2026-05-04 15:14 | 45.94739 | -58.97950 | 34496 ft | 531 kts | 70° |
| 2026-05-04 15:14 | 46.04987 | -58.58113 | 34470 ft | 531 kts | 71° |
| 2026-05-04 15:15 | 46.15149 | -58.17923 | 34430 ft | 533 kts | 71° |
| 2026-05-04 15:15 | 46.25191 | -57.77519 | 34380 ft | 534 kts | 72° |
| 2026-05-04 15:16 | 46.39978 | -57.16721 | 34417 ft | 532 kts | 73° |
| 2026-05-04 15:17 | 46.54441 | -56.55671 | 34341 ft | 532 kts | 74° |
| 2026-05-04 15:17 | 46.68505 | -55.94609 | 34390 ft | 528 kts | 75° |
| 2026-05-04 15:18 | 46.77607 | -55.54145 | 34380 ft | 527 kts | 75° |
| 2026-05-04 15:19 | 46.91006 | -54.93126 | 34415 ft | 526 kts | 76° |
| 2026-05-04 15:19 | 47.04063 | -54.31884 | 34496 ft | 523 kts | 77° |
| 2026-05-04 15:20 | 47.12553 | -53.91052 | 34524 ft | 522 kts | 77° |
| 2026-05-04 15:20 | 47.20879 | -53.50178 | 34484 ft | 522 kts | 78° |
| 2026-05-04 15:21 | 47.29058 | -53.09191 | 34560 ft | 521 kts | 78° |
| 2026-05-04 15:22 | 47.40979 | -52.47837 | 34543 ft | 519 kts | 79° |
| 2026-05-04 15:22 | 47.53362 | -51.86549 | 34630 ft | 523 kts | 73° |
| 2026-05-04 15:23 | 47.63842 | -51.46471 | 34604 ft | 521 kts | 76° |
| 2026-05-04 15:23 | 47.74001 | -51.06304 | 34673 ft | 518 kts | 77° |
| 2026-05-04 15:24 | 47.93613 | -50.26636 | 34691 ft | 509 kts | 79° |
| 2026-05-04 15:25 | 48.03195 | -49.87171 | 34719 ft | 503 kts | 78° |
| 2026-05-04 15:26 | 48.17561 | -49.29447 | 34760 ft | 504 kts | 79° |
| 2026-05-04 15:26 | 48.31830 | -48.70391 | 34713 ft | 504 kts | 80° |
| 2026-05-04 15:27 | 48.45837 | -48.10832 | 34747 ft | 503 kts | 80° |
| 2026-05-04 15:28 | 48.59500 | -47.51099 | 34783 ft | 502 kts | 80° |
| 2026-05-04 15:29 | 48.72884 | -46.90904 | 34789 ft | 505 kts | 79° |
| 2026-05-04 15:30 | 48.80216 | -46.57189 | 35132 ft | 505 kts | 79° |
| 2026-05-04 15:30 | 48.83476 | -46.42011 | 35493 ft | 506 kts | 79° |
| 2026-05-04 15:31 | 48.85646 | -46.31850 | 35730 ft | 507 kts | 79° |
| 2026-05-04 15:31 | 48.86378 | -46.28407 | 35805 ft | 507 kts | 79° |
| 2026-05-04 15:32 | 48.89609 | -46.13152 | 36124 ft | 508 kts | 78° |
| 2026-05-04 15:32 | 48.91764 | -46.02912 | 36321 ft | 509 kts | 78° |
| 2026-05-04 15:33 | 48.93918 | -45.92632 | 36518 ft | 510 kts | 78° |
| 2026-05-04 15:34 | 48.97134 | -45.77175 | 36818 ft | 512 kts | 78° |
| 2026-05-04 15:34 | 49.00339 | -45.61653 | 36857 ft | 513 kts | 78° |
| 2026-05-04 15:35 | 49.03534 | -45.46054 | 36871 ft | 515 kts | 78° |
| 2026-05-04 15:36 | 49.06706 | -45.30447 | 36878 ft | 517 kts | 78° |
| 2026-05-04 15:36 | 49.08825 | -45.19954 | 36891 ft | 518 kts | 78° |
| 2026-05-04 15:37 | 49.10938 | -45.09433 | 36895 ft | 519 kts | 78° |
| 2026-05-04 15:37 | 49.13047 | -44.98877 | 36900 ft | 521 kts | 78° |
| 2026-05-04 15:38 | 49.15151 | -44.88284 | 36911 ft | 522 kts | 78° |
| 2026-05-04 15:38 | 49.17250 | -44.77659 | 36929 ft | 523 kts | 77° |
| 2026-05-04 15:39 | 49.19346 | -44.66989 | 36938 ft | 524 kts | 77° |
| 2026-05-04 15:40 | 49.22467 | -44.50996 | 36945 ft | 526 kts | 77° |
| 2026-05-04 15:40 | 49.24548 | -44.40253 | 36964 ft | 527 kts | 77° |
| 2026-05-04 15:41 | 49.26622 | -44.29487 | 36976 ft | 528 kts | 77° |
| 2026-05-04 15:41 | 49.28687 | -44.18707 | 36964 ft | 528 kts | 77° |
| 2026-05-04 15:42 | 49.30748 | -44.07892 | 36969 ft | 529 kts | 77° |
| 2026-05-04 15:42 | 49.32801 | -43.97051 | 36976 ft | 530 kts | 77° |
| 2026-05-04 15:43 | 49.34847 | -43.86189 | 37005 ft | 530 kts | 77° |
| 2026-05-04 15:43 | 49.36882 | -43.75320 | 37018 ft | 531 kts | 77° |
| 2026-05-04 15:44 | 49.38911 | -43.64420 | 37014 ft | 531 kts | 77° |
| 2026-05-04 15:44 | 49.40933 | -43.53492 | 37024 ft | 532 kts | 77° |
| 2026-05-04 15:45 | 49.42930 | -43.42634 | 37030 ft | 532 kts | 76° |
| 2026-05-04 15:45 | 49.44934 | -43.31676 | 37041 ft | 532 kts | 76° |
| 2026-05-04 15:46 | 49.46925 | -43.20723 | 37045 ft | 533 kts | 76° |
| 2026-05-04 15:46 | 49.48914 | -43.09713 | 37053 ft | 533 kts | 76° |
| 2026-05-04 15:47 | 49.50877 | -42.98783 | 37061 ft | 533 kts | 76° |
| 2026-05-04 15:47 | 49.52836 | -42.87802 | 37068 ft | 533 kts | 76° |
| 2026-05-04 15:48 | 49.54792 | -42.76769 | 37074 ft | 535 kts | 76° |
| 2026-05-04 15:48 | 49.57696 | -42.60282 | 37080 ft | 530 kts | 76° |
| 2026-05-04 15:49 | 49.59617 | -42.49282 | 37088 ft | 531 kts | 76° |
| 2026-05-04 15:49 | 49.61524 | -42.38299 | 37100 ft | 530 kts | 76° |
| 2026-05-04 15:50 | 49.63418 | -42.27317 | 37103 ft | 530 kts | 76° |
| 2026-05-04 15:50 | 49.65302 | -42.16333 | 37110 ft | 529 kts | 76° |
| 2026-05-04 15:51 | 49.67165 | -42.05394 | 37116 ft | 529 kts | 75° |
| 2026-05-04 15:51 | 49.69025 | -41.94408 | 37123 ft | 529 kts | 75° |
| 2026-05-04 15:52 | 49.70874 | -41.83413 | 37131 ft | 528 kts | 75° |
| 2026-05-04 15:52 | 49.72642 | -41.72840 | 37136 ft | 528 kts | 75° |
| 2026-05-04 15:53 | 49.74479 | -41.61782 | 37146 ft | 527 kts | 75° |
| 2026-05-04 15:53 | 49.76279 | -41.50872 | 37151 ft | 527 kts | 75° |
| 2026-05-04 15:54 | 49.78079 | -41.39895 | 37154 ft | 526 kts | 75° |
| 2026-05-04 15:54 | 49.79870 | -41.28898 | 37156 ft | 526 kts | 75° |
| 2026-05-04 15:55 | 49.81645 | -41.17935 | 37165 ft | 525 kts | 75° |
| 2026-05-04 15:55 | 49.83410 | -41.06954 | 37172 ft | 525 kts | 75° |
| 2026-05-04 15:56 | 49.85165 | -40.95969 | 37179 ft | 525 kts | 75° |
| 2026-05-04 15:56 | 49.86908 | -40.84983 | 37182 ft | 525 kts | 75° |
| 2026-05-04 15:57 | 49.88641 | -40.73986 | 37191 ft | 525 kts | 75° |
| 2026-05-04 15:57 | 49.90365 | -40.62970 | 37201 ft | 525 kts | 75° |
| 2026-05-04 15:58 | 49.92076 | -40.51970 | 37207 ft | 524 kts | 75° |
| 2026-05-04 15:58 | 49.93763 | -40.41055 | 37213 ft | 523 kts | 74° |
| 2026-05-04 15:59 | 49.95458 | -40.30061 | 37219 ft | 522 kts | 74° |
| 2026-05-04 15:59 | 49.97138 | -40.19102 | 37231 ft | 521 kts | 74° |
| 2026-05-04 16:00 | 49.98806 | -40.08147 | 37236 ft | 520 kts | 74° |
| 2026-05-04 16:00 | 50.00478 | -39.97228 | 37222 ft | 518 kts | 71° |
| 2026-05-04 16:01 | 50.03038 | -39.86851 | 37231 ft | 513 kts | 63° |
| 2026-05-04 16:01 | 50.05799 | -39.76624 | 37230 ft | 513 kts | 64° |
| 2026-05-04 16:02 | 50.08424 | -39.66353 | 37233 ft | 514 kts | 64° |
| 2026-05-04 16:03 | 50.12306 | -39.50777 | 37249 ft | 514 kts | 64° |
| 2026-05-04 16:03 | 50.14874 | -39.40397 | 37256 ft | 513 kts | 64° |
| 2026-05-04 16:04 | 50.17430 | -39.29999 | 37258 ft | 512 kts | 64° |
| 2026-05-04 16:04 | 50.21236 | -39.14414 | 37266 ft | 511 kts | 64° |
| 2026-05-04 16:05 | 50.23739 | -39.04103 | 37273 ft | 510 kts | 64° |
| 2026-05-04 16:06 | 50.27485 | -38.88583 | 37292 ft | 508 kts | 64° |
| 2026-05-04 16:07 | 50.32422 | -38.67958 | 37290 ft | 505 kts | 64° |
| 2026-05-04 16:08 | 50.37306 | -38.47363 | 37293 ft | 503 kts | 64° |
| 2026-05-04 16:09 | 50.43317 | -38.21748 | 37287 ft | 501 kts | 64° |
| 2026-05-04 16:10 | 50.48083 | -38.01219 | 37300 ft | 500 kts | 65° |
| 2026-05-04 16:11 | 50.52806 | -37.80675 | 37305 ft | 499 kts | 65° |
| 2026-05-04 16:12 | 50.59785 | -37.49943 | 37310 ft | 498 kts | 65° |
| 2026-05-04 16:13 | 50.64411 | -37.29331 | 37314 ft | 499 kts | 65° |
| 2026-05-04 16:14 | 50.68998 | -37.08681 | 37325 ft | 500 kts | 65° |
| 2026-05-04 16:16 | 50.74686 | -36.82794 | 37324 ft | 502 kts | 65° |
| 2026-05-04 16:17 | 50.80354 | -36.56668 | 37338 ft | 503 kts | 66° |
| 2026-05-04 16:18 | 50.84763 | -36.36110 | 37345 ft | 503 kts | 66° |
| 2026-05-04 16:19 | 50.90326 | -36.09872 | 37351 ft | 503 kts | 66° |
| 2026-05-04 16:20 | 50.95457 | -35.85359 | 37353 ft | 502 kts | 66° |
| 2026-05-04 16:22 | 51.00895 | -35.59057 | 37356 ft | 501 kts | 67° |
| 2026-05-04 16:23 | 51.07333 | -35.27454 | 37352 ft | 501 kts | 67° |
| 2026-05-04 16:25 | 51.13671 | -34.95837 | 37359 ft | 501 kts | 68° |
| 2026-05-04 16:26 | 51.20972 | -34.58769 | 37369 ft | 500 kts | 68° |
| 2026-05-04 16:28 | 51.26108 | -34.32259 | 37375 ft | 499 kts | 69° |
| 2026-05-04 16:29 | 51.33169 | -33.95200 | 37380 ft | 498 kts | 70° |
| 2026-05-04 16:31 | 51.38138 | -33.68674 | 37390 ft | 497 kts | 70° |
| 2026-05-04 16:32 | 51.43998 | -33.36889 | 37394 ft | 496 kts | 71° |
| 2026-05-04 16:33 | 51.47861 | -33.15634 | 37405 ft | 496 kts | 71° |
| 2026-05-04 16:34 | 51.50723 | -32.99669 | 37412 ft | 500 kts | 70° |
| 2026-05-04 16:35 | 51.56451 | -32.67440 | 37411 ft | 501 kts | 71° |
| 2026-05-04 16:36 | 51.59281 | -32.51277 | 37411 ft | 500 kts | 71° |
| 2026-05-04 16:37 | 51.62027 | -32.35454 | 37414 ft | 500 kts | 71° |
| 2026-05-04 16:38 | 51.65731 | -32.13878 | 37420 ft | 500 kts | 72° |
| 2026-05-04 16:39 | 51.70291 | -31.86948 | 37408 ft | 499 kts | 72° |
| 2026-05-04 16:40 | 51.73900 | -31.65329 | 37432 ft | 499 kts | 72° |
| 2026-05-04 16:41 | 51.78353 | -31.38276 | 37415 ft | 498 kts | 73° |
| 2026-05-04 16:43 | 51.82739 | -31.11192 | 37423 ft | 498 kts | 73° |
| 2026-05-04 16:43 | 51.85339 | -30.94929 | 37421 ft | 498 kts | 73° |
| 2026-05-04 16:45 | 51.90461 | -30.62415 | 37416 ft | 498 kts | 74° |
| 2026-05-04 16:46 | 51.94672 | -30.35228 | 37414 ft | 497 kts | 74° |
| 2026-05-04 16:47 | 51.98007 | -30.13469 | 37415 ft | 497 kts | 75° |
| 2026-05-04 16:48 | 52.01685 | -29.91893 | 37404 ft | 494 kts | 65° |
| 2026-05-04 16:49 | 52.07158 | -29.71411 | 37409 ft | 494 kts | 65° |
| 2026-05-04 16:50 | 52.12323 | -29.50757 | 37408 ft | 495 kts | 66° |
| 2026-05-04 16:51 | 52.16175 | -29.35164 | 37405 ft | 495 kts | 66° |
| 2026-05-04 16:52 | 52.21271 | -29.14320 | 37405 ft | 495 kts | 66° |
| 2026-05-04 16:53 | 52.25053 | -28.98724 | 37404 ft | 494 kts | 67° |
| 2026-05-04 16:54 | 52.30081 | -28.77813 | 37404 ft | 494 kts | 67° |
| 2026-05-04 16:55 | 52.37540 | -28.46411 | 37400 ft | 494 kts | 67° |
| 2026-05-04 16:56 | 52.43699 | -28.20139 | 37404 ft | 494 kts | 68° |
| 2026-05-04 16:57 | 52.47369 | -28.04325 | 37398 ft | 494 kts | 68° |
| 2026-05-04 16:58 | 52.52226 | -27.83218 | 37395 ft | 494 kts | 68° |
| 2026-05-04 17:00 | 52.59426 | -27.51534 | 37395 ft | 494 kts | 68° |
| 2026-05-04 17:01 | 52.65374 | -27.24995 | 37394 ft | 494 kts | 69° |
| 2026-05-04 17:02 | 52.70073 | -27.03786 | 37390 ft | 494 kts | 69° |
| 2026-05-04 17:03 | 52.73585 | -26.87791 | 37389 ft | 494 kts | 69° |
| 2026-05-04 17:03 | 52.77073 | -26.71783 | 37385 ft | 494 kts | 69° |
| 2026-05-04 17:04 | 52.81691 | -26.50395 | 37388 ft | 494 kts | 69° |
| 2026-05-04 17:05 | 52.86273 | -26.28952 | 37387 ft | 494 kts | 69° |
| 2026-05-04 17:06 | 52.89684 | -26.12834 | 37401 ft | 494 kts | 69° |
| 2026-05-04 17:07 | 52.92312 | -26.00334 | 37397 ft | 494 kts | 69° |
| 2026-05-04 17:07 | 52.95317 | -25.85943 | 37394 ft | 494 kts | 69° |
| 2026-05-04 17:08 | 52.98653 | -25.69841 | 37392 ft | 494 kts | 70° |
| 2026-05-04 17:09 | 53.00514 | -25.60800 | 37388 ft | 494 kts | 70° |
| 2026-05-04 17:09 | 53.02726 | -25.50006 | 37389 ft | 494 kts | 70° |
| 2026-05-04 17:10 | 53.08198 | -25.23044 | 37386 ft | 494 kts | 70° |
| 2026-05-04 17:11 | 53.10377 | -25.12201 | 37389 ft | 493 kts | 70° |
| 2026-05-04 17:12 | 53.18698 | -24.70238 | 37424 ft | 492 kts | 70° |
| 2026-05-04 17:13 | 53.39478 | -23.61244 | 37341 ft | 492 kts | 71° |
| 2026-05-04 17:14 | 53.55343 | -22.73510 | 37345 ft | 490 kts | 72° |
| 2026-05-04 17:15 | 53.66734 | -22.07776 | 37302 ft | 489 kts | 72° |
| 2026-05-04 17:16 | 53.81379 | -21.19467 | 37343 ft | 486 kts | 73° |
| 2026-05-04 17:17 | 53.95343 | -20.30804 | 37323 ft | 486 kts | 74° |
| 2026-05-04 17:17 | 54.00702 | -19.62760 | 37308 ft | 489 kts | 87° |
| 2026-05-04 17:18 | 54.01101 | -19.39653 | 37316 ft | 490 kts | 88° |
| 2026-05-04 17:19 | 54.02201 | -18.47259 | 37272 ft | 489 kts | 88° |
| 2026-05-04 17:20 | 54.02596 | -17.54842 | 37241 ft | 487 kts | 89° |
| 2026-05-04 17:20 | 54.02427 | -16.85900 | 37245 ft | 487 kts | 90° |
| 2026-05-04 17:21 | 54.01591 | -15.93942 | 37170 ft | 487 kts | 91° |
| 2026-05-04 17:22 | 54.00907 | -15.47966 | 37195 ft | 486 kts | 91° |
| 2026-05-04 17:23 | 54.00103 | -14.64687 | 37139 ft | 487 kts | 89° |
| 2026-05-04 17:24 | 54.01319 | -13.95997 | 37168 ft | 484 kts | 71° |
| 2026-05-04 17:25 | 54.23490 | -13.12351 | 37136 ft | 484 kts | 64° |
| 2026-05-04 17:26 | 54.45212 | -12.28089 | 37177 ft | 484 kts | 65° |
| 2026-05-04 17:27 | 54.62816 | -11.57375 | 37146 ft | 485 kts | 66° |
| 2026-05-04 17:28 | 54.68051 | -11.35905 | 37143 ft | 485 kts | 66° |
| 2026-05-04 17:29 | 54.75821 | -11.03639 | 37139 ft | 485 kts | 66° |
| 2026-05-04 17:31 | 54.82252 | -10.76570 | 37131 ft | 485 kts | 66° |
| 2026-05-04 17:32 | 54.88616 | -10.49440 | 37127 ft | 485 kts | 66° |
| 2026-05-04 17:33 | 54.93653 | -10.27719 | 37123 ft | 486 kts | 67° |
| 2026-05-04 17:34 | 54.98669 | -10.05881 | 37116 ft | 486 kts | 67° |
| 2026-05-04 17:35 | 55.01290 | -9.88886 | 37113 ft | 487 kts | 78° |
| 2026-05-04 17:35 | 55.02630 | -9.77303 | 37115 ft | 487 kts | 77° |
| 2026-05-04 17:36 | 55.03988 | -9.65724 | 37116 ft | 488 kts | 78° |
| 2026-05-04 17:36 | 55.05320 | -9.54123 | 37116 ft | 488 kts | 78° |
| 2026-05-04 17:37 | 55.06636 | -9.42514 | 37115 ft | 488 kts | 78° |
| 2026-05-04 17:37 | 55.07939 | -9.30900 | 37111 ft | 488 kts | 78° |
| 2026-05-04 17:38 | 55.09232 | -9.19280 | 37112 ft | 488 kts | 78° |
| 2026-05-04 17:38 | 55.10515 | -9.07640 | 37112 ft | 488 kts | 78° |
| 2026-05-04 17:39 | 55.12418 | -8.90168 | 37109 ft | 488 kts | 78° |
| 2026-05-04 17:39 | 55.13667 | -8.78570 | 37113 ft | 488 kts | 78° |
| 2026-05-04 17:40 | 55.14911 | -8.66905 | 37118 ft | 488 kts | 78° |
| 2026-05-04 17:40 | 55.16144 | -8.55225 | 37100 ft | 488 kts | 78° |
| 2026-05-04 17:41 | 55.17367 | -8.43536 | 37102 ft | 488 kts | 79° |
| 2026-05-04 17:41 | 55.18579 | -8.31836 | 37101 ft | 489 kts | 79° |
| 2026-05-04 17:42 | 55.19780 | -8.20127 | 37099 ft | 489 kts | 79° |
| 2026-05-04 17:42 | 55.20972 | -8.08392 | 37098 ft | 489 kts | 79° |
| 2026-05-04 17:43 | 55.22149 | -7.96678 | 37095 ft | 489 kts | 79° |
| 2026-05-04 17:43 | 55.23318 | -7.84935 | 37092 ft | 489 kts | 79° |
| 2026-05-04 17:44 | 55.24466 | -7.73280 | 37090 ft | 489 kts | 79° |
| 2026-05-04 17:44 | 55.25612 | -7.61519 | 37088 ft | 489 kts | 79° |
| 2026-05-04 17:45 | 55.26747 | -7.49755 | 37094 ft | 489 kts | 79° |
| 2026-05-04 17:45 | 55.27870 | -7.37992 | 37092 ft | 489 kts | 79° |
| 2026-05-04 17:46 | 55.28984 | -7.26199 | 37093 ft | 489 kts | 80° |
| 2026-05-04 17:46 | 55.30076 | -7.14506 | 37093 ft | 489 kts | 80° |
| 2026-05-04 17:47 | 55.31165 | -7.02719 | 37084 ft | 488 kts | 80° |
| 2026-05-04 17:47 | 55.32242 | -6.90933 | 37082 ft | 488 kts | 80° |
| 2026-05-04 17:48 | 55.33308 | -6.79143 | 37083 ft | 488 kts | 80° |
| 2026-05-04 17:48 | 55.34362 | -6.67349 | 37079 ft | 488 kts | 80° |
| 2026-05-04 17:49 | 55.35404 | -6.55561 | 37081 ft | 489 kts | 81° |
| 2026-05-04 17:49 | 55.36430 | -6.43813 | 37070 ft | 489 kts | 81° |
| 2026-05-04 17:50 | 55.37450 | -6.31994 | 37074 ft | 489 kts | 81° |
| 2026-05-04 17:50 | 55.38459 | -6.20174 | 37072 ft | 489 kts | 81° |
| 2026-05-04 17:51 | 55.39458 | -6.08325 | 37076 ft | 489 kts | 81° |
| 2026-05-04 17:51 | 55.40446 | -5.96479 | 37072 ft | 490 kts | 81° |
| 2026-05-04 17:52 | 55.41422 | -5.84616 | 37072 ft | 490 kts | 81° |
| 2026-05-04 17:52 | 55.42391 | -5.72739 | 37076 ft | 490 kts | 81° |
| 2026-05-04 17:53 | 55.43319 | -5.61363 | 37079 ft | 490 kts | 81° |
| 2026-05-04 17:53 | 55.44367 | -5.49499 | 37075 ft | 490 kts | 80° |
| 2026-05-04 17:54 | 55.45446 | -5.37630 | 37073 ft | 490 kts | 80° |
| 2026-05-04 17:54 | 55.46510 | -5.25763 | 37066 ft | 490 kts | 80° |
| 2026-05-04 17:55 | 55.47556 | -5.13945 | 37066 ft | 491 kts | 81° |
| 2026-05-04 17:55 | 55.48422 | -5.03992 | 37064 ft | 491 kts | 81° |
| 2026-05-04 17:56 | 55.49637 | -4.89791 | 37071 ft | 491 kts | 81° |
| 2026-05-04 17:56 | 55.51315 | -4.69830 | 37074 ft | 491 kts | 81° |
| 2026-05-04 17:57 | 55.53276 | -4.45963 | 37075 ft | 491 kts | 81° |
| 2026-05-04 17:57 | 55.55186 | -4.22156 | 37064 ft | 492 kts | 81° |
| 2026-05-04 17:58 | 55.57058 | -3.98194 | 37041 ft | 492 kts | 82° |
| 2026-05-04 17:58 | 55.58885 | -3.74202 | 37038 ft | 492 kts | 82° |
| 2026-05-04 17:59 | 55.60668 | -3.50137 | 37031 ft | 492 kts | 82° |
| 2026-05-04 18:00 | 55.63238 | -3.14225 | 37029 ft | 492 kts | 82° |
| 2026-05-04 18:00 | 55.64902 | -2.90135 | 37025 ft | 492 kts | 83° |
| 2026-05-04 18:01 | 55.66519 | -2.66014 | 37016 ft | 492 kts | 83° |
| 2026-05-04 18:01 | 55.68083 | -2.41959 | 37011 ft | 492 kts | 83° |
| 2026-05-04 18:02 | 55.70346 | -2.05766 | 37008 ft | 492 kts | 83° |
| 2026-05-04 18:02 | 55.71794 | -1.81648 | 37006 ft | 492 kts | 83° |
| 2026-05-04 18:03 | 55.73195 | -1.57495 | 37003 ft | 492 kts | 84° |
| 2026-05-04 18:03 | 55.74541 | -1.33458 | 36994 ft | 492 kts | 84° |
| 2026-05-04 18:04 | 55.75848 | -1.09272 | 36998 ft | 492 kts | 84° |
| 2026-05-04 18:05 | 55.77721 | -0.72905 | 37002 ft | 493 kts | 84° |
| 2026-05-04 18:05 | 55.78910 | -0.48639 | 37014 ft | 493 kts | 85° |
| 2026-05-04 18:06 | 55.80607 | -0.12167 | 37019 ft | 493 kts | 85° |
| 2026-05-04 18:06 | 55.81677 | 0.12144 | 37017 ft | 493 kts | 85° |
| 2026-05-04 18:07 | 55.82699 | 0.36479 | 37013 ft | 493 kts | 85° |
| 2026-05-04 18:07 | 55.83668 | 0.60669 | 37014 ft | 494 kts | 85° |
| 2026-05-04 18:08 | 55.84595 | 0.85052 | 37022 ft | 494 kts | 86° |
| 2026-05-04 18:08 | 55.85475 | 1.09462 | 37019 ft | 494 kts | 86° |
| 2026-05-04 18:09 | 55.87027 | 1.56305 | 37024 ft | 494 kts | 86° |
| 2026-05-04 18:10 | 55.87403 | 1.68526 | 37023 ft | 494 kts | 86° |
| 2026-05-04 18:10 | 55.87886 | 1.84849 | 37021 ft | 494 kts | 87° |
| 2026-05-04 18:11 | 55.88378 | 2.02308 | 37024 ft | 494 kts | 87° |
| 2026-05-04 18:11 | 55.88708 | 2.14558 | 37025 ft | 495 kts | 87° |
| 2026-05-04 18:12 | 55.89026 | 2.26798 | 37027 ft | 495 kts | 87° |
| 2026-05-04 18:12 | 55.89332 | 2.39047 | 37055 ft | 496 kts | 87° |
| 2026-05-04 18:13 | 55.89481 | 2.45194 | 37198 ft | 496 kts | 87° |
| 2026-05-04 18:13 | 55.89627 | 2.51334 | 37357 ft | 496 kts | 87° |
| 2026-05-04 18:13 | 55.89909 | 2.63610 | 37650 ft | 496 kts | 87° |
| 2026-05-04 18:14 | 55.90036 | 2.69670 | 37794 ft | 495 kts | 88° |
| 2026-05-04 18:14 | 55.90148 | 2.75806 | 37930 ft | 495 kts | 88° |
| 2026-05-04 18:14 | 55.90262 | 2.81940 | 38063 ft | 495 kts | 88° |
| 2026-05-04 18:15 | 55.90506 | 2.94223 | 38327 ft | 495 kts | 88° |
| 2026-05-04 18:15 | 55.90750 | 3.06500 | 38613 ft | 495 kts | 88° |
| 2026-05-04 18:15 | 55.90869 | 3.12626 | 38714 ft | 495 kts | 88° |
| 2026-05-04 18:16 | 55.90987 | 3.18765 | 38813 ft | 495 kts | 88° |
| 2026-05-04 18:16 | 55.91104 | 3.24896 | 38914 ft | 495 kts | 88° |
| 2026-05-04 18:16 | 55.91218 | 3.31032 | 38990 ft | 495 kts | 88° |
| 2026-05-04 18:17 | 55.91534 | 3.49424 | 39027 ft | 494 kts | 88° |
| 2026-05-04 18:18 | 55.91838 | 3.67818 | 39028 ft | 494 kts | 87° |
| 2026-05-04 18:18 | 55.92121 | 3.79656 | 39031 ft | 495 kts | 88° |
| 2026-05-04 18:19 | 55.92479 | 3.97964 | 39025 ft | 494 kts | 88° |
| 2026-05-04 18:19 | 55.92693 | 4.10228 | 39025 ft | 494 kts | 88° |
| 2026-05-04 18:20 | 55.92894 | 4.22486 | 39011 ft | 494 kts | 88° |
| 2026-05-04 18:20 | 55.93084 | 4.34751 | 39009 ft | 494 kts | 88° |
| 2026-05-04 18:21 | 55.93261 | 4.47005 | 39016 ft | 494 kts | 88° |
| 2026-05-04 18:21 | 55.93426 | 4.59275 | 39023 ft | 495 kts | 89° |
| 2026-05-04 18:22 | 55.93579 | 4.71534 | 39016 ft | 495 kts | 89° |
| 2026-05-04 18:22 | 55.93719 | 4.83809 | 39006 ft | 495 kts | 89° |
| 2026-05-04 18:23 | 55.93847 | 4.96080 | 39021 ft | 495 kts | 89° |
| 2026-05-04 18:23 | 55.93981 | 5.08274 | 39009 ft | 495 kts | 89° |
| 2026-05-04 18:24 | 55.94157 | 5.20561 | 39017 ft | 495 kts | 88° |
| 2026-05-04 18:24 | 55.94331 | 5.32833 | 39027 ft | 495 kts | 89° |
| 2026-05-04 18:25 | 55.94486 | 5.45122 | 39025 ft | 495 kts | 89° |
| 2026-05-04 18:25 | 55.94617 | 5.56999 | 39027 ft | 496 kts | 89° |
| 2026-05-04 18:26 | 55.94740 | 5.69298 | 39020 ft | 496 kts | 89° |
| 2026-05-04 18:26 | 55.94851 | 5.81605 | 39022 ft | 496 kts | 89° |
| 2026-05-04 18:27 | 55.94849 | 5.93926 | 39017 ft | 496 kts | 91° |
| 2026-05-04 18:27 | 55.94764 | 6.06159 | 39001 ft | 496 kts | 91° |
| 2026-05-04 18:28 | 55.94664 | 6.18498 | 39016 ft | 500 kts | 91° |
| 2026-05-04 18:28 | 55.94529 | 6.30903 | 39022 ft | 498 kts | 91° |
| 2026-05-04 18:29 | 55.94370 | 6.43298 | 39022 ft | 502 kts | 92° |
| 2026-05-04 18:29 | 55.94195 | 6.55795 | 39017 ft | 503 kts | 92° |
| 2026-05-04 18:30 | 55.93908 | 6.74556 | 39015 ft | 506 kts | 92° |
| 2026-05-04 18:31 | 55.93701 | 6.87121 | 39011 ft | 507 kts | 92° |
| 2026-05-04 18:31 | 55.93480 | 6.99719 | 39011 ft | 508 kts | 92° |
| 2026-05-04 18:32 | 55.93245 | 7.12341 | 39013 ft | 509 kts | 92° |
| 2026-05-04 18:32 | 55.93000 | 7.24868 | 39012 ft | 510 kts | 92° |
| 2026-05-04 18:33 | 55.92739 | 7.37517 | 39013 ft | 510 kts | 92° |
| 2026-05-04 18:33 | 55.92465 | 7.50161 | 39012 ft | 510 kts | 93° |
| 2026-05-04 18:34 | 55.92179 | 7.62806 | 38971 ft | 511 kts | 93° |
| 2026-05-04 18:34 | 55.91878 | 7.75478 | 39010 ft | 510 kts | 93° |
| 2026-05-04 18:35 | 55.91565 | 7.88117 | 39006 ft | 511 kts | 93° |
| 2026-05-04 18:35 | 55.91239 | 8.00778 | 39005 ft | 511 kts | 93° |
| 2026-05-04 18:36 | 55.90900 | 8.13438 | 39003 ft | 511 kts | 94° |
| 2026-05-04 18:36 | 55.90548 | 8.26106 | 38967 ft | 512 kts | 94° |
| 2026-05-04 18:37 | 55.90187 | 8.38618 | 39002 ft | 504 kts | 94° |
| 2026-05-04 18:37 | 55.89814 | 8.51114 | 39000 ft | 506 kts | 94° |
| 2026-05-04 18:37 | 55.89622 | 8.57378 | 38899 ft | 507 kts | 94° |
| 2026-05-04 18:38 | 55.89426 | 8.63672 | 38576 ft | 507 kts | 94° |
| 2026-05-04 18:38 | 55.89227 | 8.69938 | 38148 ft | 505 kts | 94° |
| 2026-05-04 18:38 | 55.89027 | 8.76168 | 37731 ft | 503 kts | 94° |
| 2026-05-04 18:38 | 55.88824 | 8.82360 | 37323 ft | 499 kts | 94° |
| 2026-05-04 18:39 | 55.88620 | 8.88512 | 36934 ft | 497 kts | 94° |
| 2026-05-04 18:39 | 55.88413 | 8.94644 | 36533 ft | 497 kts | 94° |
| 2026-05-04 18:39 | 55.88203 | 9.00790 | 36146 ft | 497 kts | 94° |
| 2026-05-04 18:39 | 55.87989 | 9.06947 | 35768 ft | 498 kts | 94° |
| 2026-05-04 18:40 | 55.87773 | 9.13102 | 35394 ft | 498 kts | 94° |
| 2026-05-04 18:40 | 55.87552 | 9.19299 | 35033 ft | 502 kts | 94° |
| 2026-05-04 18:40 | 55.87327 | 9.25512 | 34671 ft | 503 kts | 94° |
| 2026-05-04 18:40 | 55.87101 | 9.31653 | 34316 ft | 502 kts | 94° |
| 2026-05-04 18:41 | 55.86870 | 9.37855 | 33955 ft | 501 kts | 94° |
| 2026-05-04 18:41 | 55.86653 | 9.43635 | 33675 ft | 497 kts | 94° |
| 2026-05-04 18:41 | 55.86420 | 9.49761 | 33398 ft | 496 kts | 94° |
| 2026-05-04 18:41 | 55.86183 | 9.55903 | 33124 ft | 498 kts | 94° |
| 2026-05-04 18:42 | 55.85941 | 9.62067 | 32855 ft | 499 kts | 94° |
| 2026-05-04 18:42 | 55.85697 | 9.68223 | 32582 ft | 499 kts | 94° |
| 2026-05-04 18:42 | 55.85449 | 9.74386 | 32309 ft | 500 kts | 94° |
| 2026-05-04 18:42 | 55.85198 | 9.80574 | 32052 ft | 500 kts | 95° |
| 2026-05-04 18:43 | 55.84944 | 9.86735 | 31781 ft | 500 kts | 95° |
| 2026-05-04 18:43 | 55.84774 | 9.90822 | 31554 ft | 500 kts | 95° |
| 2026-05-04 18:43 | 55.84427 | 9.99073 | 30800 ft | 498 kts | 95° |
| 2026-05-04 18:43 | 55.84253 | 10.03142 | 30391 ft | 496 kts | 95° |
| 2026-05-04 18:44 | 55.83991 | 10.09230 | 29716 ft | 488 kts | 95° |
| 2026-05-04 18:44 | 55.83820 | 10.13180 | 29308 ft | 479 kts | 95° |
| 2026-05-04 18:44 | 55.83481 | 10.20892 | 28736 ft | 457 kts | 95° |
| 2026-05-04 18:44 | 55.83234 | 10.26445 | 28311 ft | 442 kts | 95° |
| 2026-05-04 18:45 | 55.82993 | 10.31803 | 27865 ft | 429 kts | 95° |
| 2026-05-04 18:45 | 55.82753 | 10.37074 | 27156 ft | 425 kts | 95° |
| 2026-05-04 18:45 | 55.82513 | 10.42305 | 26380 ft | 422 kts | 95° |
| 2026-05-04 18:45 | 55.82273 | 10.47486 | 25667 ft | 418 kts | 95° |
| 2026-05-04 18:46 | 55.82033 | 10.52620 | 24984 ft | 416 kts | 95° |
| 2026-05-04 18:46 | 55.81792 | 10.57737 | 24313 ft | 413 kts | 95° |
| 2026-05-04 18:46 | 55.81554 | 10.62730 | 23674 ft | 409 kts | 95° |
| 2026-05-04 18:46 | 55.81313 | 10.67768 | 23229 ft | 409 kts | 96° |
| 2026-05-04 18:47 | 55.81071 | 10.72787 | 22824 ft | 406 kts | 96° |
| 2026-05-04 18:47 | 55.80828 | 10.77768 | 22289 ft | 402 kts | 96° |
| 2026-05-04 18:47 | 55.80586 | 10.82693 | 21630 ft | 398 kts | 96° |
| 2026-05-04 18:47 | 55.80343 | 10.87602 | 21007 ft | 398 kts | 96° |
| 2026-05-04 18:48 | 55.80192 | 10.92477 | 20619 ft | 392 kts | 86° |
| 2026-05-04 18:48 | 55.80752 | 10.97176 | 20292 ft | 385 kts | 67° |
| 2026-05-04 18:48 | 55.82059 | 11.01207 | 19796 ft | 370 kts | 46° |
| 2026-05-04 18:48 | 55.83950 | 11.04118 | 19304 ft | 352 kts | 25° |
| 2026-05-04 18:49 | 55.86136 | 11.05608 | 18847 ft | 333 kts | 5° |
| 2026-05-04 18:49 | 55.88409 | 11.06332 | 18368 ft | 333 kts | 4° |
| 2026-05-04 18:49 | 55.90692 | 11.07043 | 17851 ft | 332 kts | 4° |
| 2026-05-04 18:49 | 55.92904 | 11.08201 | 17297 ft | 337 kts | 21° |
| 2026-05-04 18:50 | 55.94811 | 11.10680 | 16918 ft | 342 kts | 43° |
| 2026-05-04 18:50 | 55.96150 | 11.14206 | 16426 ft | 346 kts | 64° |
| 2026-05-04 18:50 | 55.96735 | 11.18353 | 15908 ft | 346 kts | 86° |
| 2026-05-04 18:50 | 55.96476 | 11.22575 | 15472 ft | 340 kts | 109° |
| 2026-05-04 18:51 | 55.95433 | 11.26321 | 15116 ft | 336 kts | 127° |
| 2026-05-04 18:51 | 55.94007 | 11.29589 | 14738 ft | 331 kts | 141° |
| 2026-05-04 18:51 | 55.92124 | 11.31747 | 14373 ft | 316 kts | 165° |
| 2026-05-04 18:51 | 55.90034 | 11.32435 | 14063 ft | 295 kts | 185° |
| 2026-05-04 18:52 | 55.88050 | 11.32947 | 13797 ft | 286 kts | 166° |
| 2026-05-04 18:52 | 55.86277 | 11.34400 | 13549 ft | 275 kts | 162° |
| 2026-05-04 18:52 | 55.84507 | 11.35691 | 13168 ft | 274 kts | 165° |
| 2026-05-04 18:52 | 55.82738 | 11.36920 | 12694 ft | 271 kts | 165° |
| 2026-05-04 18:53 | 55.80981 | 11.38133 | 12158 ft | 271 kts | 165° |
| 2026-05-04 18:53 | 55.79231 | 11.39332 | 11796 ft | 266 kts | 165° |
| 2026-05-04 18:53 | 55.77494 | 11.40518 | 11537 ft | 269 kts | 165° |
| 2026-05-04 18:53 | 55.75744 | 11.41704 | 11294 ft | 268 kts | 165° |
| 2026-05-04 18:54 | 55.74010 | 11.42875 | 11034 ft | 265 kts | 165° |
| 2026-05-04 18:54 | 55.72285 | 11.44038 | 10780 ft | 265 kts | 165° |
| 2026-05-04 18:54 | 55.70587 | 11.45177 | 10544 ft | 264 kts | 165° |
| 2026-05-04 18:54 | 55.68870 | 11.46325 | 10306 ft | 263 kts | 165° |
| 2026-05-04 18:55 | 55.67155 | 11.47466 | 10057 ft | 262 kts | 165° |
| 2026-05-04 18:55 | 55.63750 | 11.49721 | 9549 ft | 260 kts | 165° |
| 2026-05-04 18:55 | 55.62056 | 11.50834 | 9277 ft | 259 kts | 165° |
| 2026-05-04 18:56 | 55.60368 | 11.51941 | 9002 ft | 258 kts | 165° |
| 2026-05-04 18:56 | 55.58756 | 11.53326 | 8725 ft | 262 kts | 146° |
| 2026-05-04 18:56 | 55.57569 | 11.55795 | 8481 ft | 268 kts | 119° |
| 2026-05-04 18:56 | 55.57082 | 11.58961 | 8243 ft | 269 kts | 94° |
| 2026-05-04 18:57 | 55.56939 | 11.62258 | 8016 ft | 268 kts | 94° |
| 2026-05-04 18:57 | 55.56798 | 11.65528 | 7960 ft | 267 kts | 94° |
| 2026-05-04 18:57 | 55.56655 | 11.68799 | 7965 ft | 268 kts | 94° |
| 2026-05-04 18:57 | 55.56511 | 11.72085 | 7966 ft | 268 kts | 95° |
| 2026-05-04 18:58 | 55.56367 | 11.75381 | 7956 ft | 268 kts | 95° |
| 2026-05-04 18:58 | 55.56224 | 11.78655 | 7948 ft | 268 kts | 95° |
| 2026-05-04 18:58 | 55.56079 | 11.81947 | 7969 ft | 268 kts | 95° |
| 2026-05-04 18:58 | 55.56038 | 11.85238 | 7963 ft | 268 kts | 81° |
| 2026-05-04 18:59 | 55.56664 | 11.88248 | 7977 ft | 265 kts | 53° |
| 2026-05-04 18:59 | 55.57946 | 11.90514 | 7983 ft | 260 kts | 31° |
| 2026-05-04 18:59 | 55.59481 | 11.92161 | 7953 ft | 258 kts | 24° |
| 2026-05-04 18:59 | 55.61039 | 11.93719 | 7950 ft | 258 kts | 26° |
| 2026-05-04 19:00 | 55.62570 | 11.95403 | 7955 ft | 259 kts | 29° |
| 2026-05-04 19:00 | 55.64056 | 11.97208 | 7975 ft | 259 kts | 31° |
| 2026-05-04 19:00 | 55.65514 | 11.99083 | 7980 ft | 259 kts | 32° |
| 2026-05-04 19:00 | 55.66968 | 12.01007 | 7960 ft | 261 kts | 33° |
| 2026-05-04 19:01 | 55.68394 | 12.02991 | 7941 ft | 262 kts | 40° |
| 2026-05-04 19:01 | 55.69406 | 12.05687 | 7956 ft | 268 kts | 68° |
| 2026-05-04 19:01 | 55.69769 | 12.08936 | 7966 ft | 269 kts | 85° |
| 2026-05-04 19:01 | 55.69852 | 12.12246 | 7971 ft | 269 kts | 89° |
| 2026-05-04 19:02 | 55.69881 | 12.15569 | 7961 ft | 269 kts | 89° |
| 2026-05-04 19:02 | 55.69931 | 12.18886 | 7786 ft | 270 kts | 88° |
| 2026-05-04 19:02 | 55.70009 | 12.21979 | 7437 ft | 268 kts | 87° |
| 2026-05-04 19:02 | 55.70114 | 12.25231 | 7064 ft | 263 kts | 86° |
| 2026-05-04 19:03 | 55.70232 | 12.28494 | 6705 ft | 265 kts | 86° |
| 2026-05-04 19:03 | 55.70351 | 12.31687 | 6341 ft | 261 kts | 86° |
| 2026-05-04 19:03 | 55.70467 | 12.34883 | 5948 ft | 259 kts | 85° |
| 2026-05-04 19:03 | 55.70584 | 12.38071 | 5560 ft | 257 kts | 86° |
| 2026-05-04 19:04 | 55.70696 | 12.41209 | 5176 ft | 254 kts | 86° |
| 2026-05-04 19:04 | 55.70806 | 12.44323 | 4833 ft | 253 kts | 86° |
| 2026-05-04 19:04 | 55.70914 | 12.47438 | 4475 ft | 252 kts | 85° |
| 2026-05-04 19:04 | 55.71073 | 12.50505 | 4151 ft | 246 kts | 77° |
| 2026-05-04 19:05 | 55.71624 | 12.53331 | 4041 ft | 245 kts | 60° |
| 2026-05-04 19:05 | 55.72428 | 12.55993 | 4025 ft | 244 kts | 59° |
| 2026-05-04 19:05 | 55.73224 | 12.58654 | 4030 ft | 243 kts | 60° |
| 2026-05-04 19:05 | 55.74004 | 12.61330 | 4027 ft | 244 kts | 60° |
| 2026-05-04 19:06 | 55.74828 | 12.63952 | 4003 ft | 243 kts | 52° |
| 2026-05-04 19:06 | 55.75945 | 12.66141 | 3860 ft | 237 kts | 37° |
| 2026-05-04 19:06 | 55.77201 | 12.68014 | 3523 ft | 235 kts | 36° |
| 2026-05-04 19:06 | 55.78438 | 12.69870 | 3158 ft | 231 kts | 37° |
| 2026-05-04 19:07 | 55.79656 | 12.71735 | 3035 ft | 233 kts | 38° |
| 2026-05-04 19:07 | 55.80879 | 12.73636 | 3017 ft | 233 kts | 38° |
| 2026-05-04 19:07 | 55.82101 | 12.75550 | 3020 ft | 233 kts | 38° |
| 2026-05-04 19:07 | 55.83302 | 12.77435 | 3017 ft | 233 kts | 38° |
| 2026-05-04 19:08 | 55.84522 | 12.79330 | 3013 ft | 234 kts | 38° |
| 2026-05-04 19:08 | 55.85705 | 12.81267 | 2997 ft | 226 kts | 47° |
| 2026-05-04 19:08 | 55.86360 | 12.83690 | 3023 ft | 219 kts | 75° |
| 2026-05-04 19:08 | 55.86712 | 12.86368 | 3018 ft | 219 kts | 75° |
| 2026-05-04 19:09 | 55.87052 | 12.88987 | 3009 ft | 214 kts | 75° |
| 2026-05-04 19:09 | 55.87371 | 12.91479 | 3000 ft | 199 kts | 75° |
| 2026-05-04 19:09 | 55.87597 | 12.93899 | 2986 ft | 201 kts | 90° |
| 2026-05-04 19:09 | 55.87178 | 12.96241 | 3002 ft | 202 kts | 126° |
| 2026-05-04 19:10 | 55.86112 | 12.97777 | 2997 ft | 197 kts | 162° |
| 2026-05-04 19:10 | 55.84782 | 12.98068 | 3011 ft | 193 kts | 185° |
| 2026-05-04 19:10 | 55.83455 | 12.97928 | 2995 ft | 189 kts | 194° |
| 2026-05-04 19:10 | 55.82247 | 12.97115 | 3009 ft | 184 kts | 215° |
| 2026-05-04 19:11 | 55.81217 | 12.95788 | 3010 ft | 183 kts | 225° |
| 2026-05-04 19:11 | 55.80260 | 12.94296 | 3010 ft | 183 kts | 226° |
| 2026-05-04 19:11 | 55.79301 | 12.92801 | 3014 ft | 182 kts | 225° |
| 2026-05-04 19:11 | 55.78351 | 12.91325 | 3015 ft | 183 kts | 225° |
| 2026-05-04 19:12 | 55.77392 | 12.89829 | 3021 ft | 183 kts | 225° |
| 2026-05-04 19:12 | 55.75478 | 12.86851 | 3023 ft | 184 kts | 225° |
| 2026-05-04 19:12 | 55.74519 | 12.85361 | 3021 ft | 183 kts | 225° |
| 2026-05-04 19:13 | 55.73561 | 12.83866 | 2959 ft | 185 kts | 225° |
| 2026-05-04 19:13 | 55.72600 | 12.82375 | 2720 ft | 182 kts | 225° |
| 2026-05-04 19:13 | 55.71661 | 12.80913 | 2467 ft | 180 kts | 225° |
| 2026-05-04 19:13 | 55.70701 | 12.79417 | 2222 ft | 183 kts | 225° |
| 2026-05-04 19:14 | 55.69779 | 12.77990 | 1975 ft | 175 kts | 225° |
| 2026-05-04 19:14 | 55.68891 | 12.76610 | 1753 ft | 164 kts | 225° |
| 2026-05-04 19:14 | 55.68050 | 12.75305 | 1523 ft | 160 kts | 226° |
| 2026-05-04 19:14 | 55.67231 | 12.74030 | 1322 ft | 150 kts | 225° |
| 2026-05-04 19:15 | 55.66450 | 12.72821 | 1110 ft | 153 kts | 225° |
| 2026-05-04 19:15 | 55.65676 | 12.71617 | 874 ft | 145 kts | 224° |
| 2026-05-04 19:15 | 55.64903 | 12.70416 | 677 ft | 145 kts | 224° |
| 2026-05-04 19:15 | 55.64150 | 12.69253 | 483 ft | 148 kts | 224° |
| 2026-05-04 19:16 | 55.63388 | 12.68063 | 259 ft | 141 kts | 225° |
| 2026-05-04 19:16 | 55.62639 | 12.66899 | 99 ft | 149 kts | 224° |
| 2026-05-04 19:16 | 55.61898 | 12.65762 | 32 ft | 112 kts | 221° |
| 2026-05-04 19:16 | 55.61508 | 12.65150 | 29 ft | 58 kts | 221° |
| 2026-05-04 19:17 | 55.61300 | 12.64777 | 30 ft | 38 kts | 242° |
| 2026-05-04 19:17 | 55.61231 | 12.64489 | 29 ft | 15 kts | 250° |
| 2026-05-04 19:17 | 55.61198 | 12.64304 | 29 ft | 17 kts | 252° |
| 2026-05-04 19:17 | 55.61232 | 12.64119 | 29 ft | 18 kts | 333° |
| 2026-05-04 19:18 | 55.61326 | 12.64159 | 30 ft | 12 kts | 36° |
| 2026-05-04 19:18 | 55.61404 | 12.64254 | 30 ft | 16 kts | 33° |
| 2026-05-04 19:18 | 55.61509 | 12.64370 | 30 ft | 20 kts | 33° |
| 2026-05-04 19:18 | 55.61632 | 12.64514 | 30 ft | 22 kts | 33° |
| 2026-05-04 19:19 | 55.61761 | 12.64661 | 30 ft | 22 kts | 33° |
| 2026-05-04 19:19 | 55.61891 | 12.64811 | 29 ft | 20 kts | 33° |
| 2026-05-04 19:19 | 55.62008 | 12.64944 | 30 ft | 18 kts | 32° |
| 2026-05-04 19:19 | 55.62105 | 12.65056 | 30 ft | 11 kts | 33° |
| 2026-05-04 19:20 | 55.62123 | 12.65076 | 30 ft | 0 kts | 33° |
| 2026-05-04 19:20 | 55.62123 | 12.65077 | 30 ft | 1 kts | 33° |
| 2026-05-04 19:21 | 55.62155 | 12.65114 | 29 ft | 9 kts | 33° |
| 2026-05-04 19:21 | 55.62188 | 12.65151 | 30 ft | 0 kts | 33° |
| 2026-05-04 19:21 | 55.62208 | 12.65174 | 30 ft | 9 kts | 33° |
| 2026-05-04 19:22 | 55.62292 | 12.65202 | 30 ft | 11 kts | 6° |
| 2026-05-04 19:22 | 55.62357 | 12.65204 | 30 ft | 10 kts | 359° |
| 2026-05-04 19:22 | 55.62414 | 12.65202 | 30 ft | 7 kts | 358° |
| 2026-05-04 19:22 | 55.62431 | 12.65169 | 29 ft | 3 kts | 306° |
| 2026-05-04 19:23 | 55.62432 | 12.65131 | 30 ft | 3 kts | 273° |
| 2026-05-04 19:23 | 55.62433 | 12.65108 | 30 ft | 1 kts | 275° |
| 2026-05-04 19:23 | 55.62432 | 12.65088 | 30 ft | 2 kts | 269° |
| 2026-05-04 19:23 | 55.62432 | 12.65069 | 30 ft | 2 kts | 269° |
| 2026-05-04 19:24 | 55.62432 | 12.65058 | 30 ft | 0 kts | 269° |